createdAt,value
2023-05-01T00:01:47.579Z,8.30
2023-05-01T00:04:17.547Z,8.50
2023-05-01T00:06:46.510Z,8.30
2023-05-01T00:09:15.393Z,8.10
2023-05-01T00:11:43.690Z,7.80
2023-05-01T00:14:12.371Z,8.60
2023-05-01T00:16:40.799Z,9.10
2023-05-01T00:19:09.673Z,8.60
2023-05-01T00:21:38.214Z,9.30
2023-05-01T00:24:06.680Z,8.60
2023-05-01T00:26:35.143Z,8.60
2023-05-01T00:29:03.600Z,8.30
2023-05-01T00:31:31.959Z,8.70
2023-05-01T00:37:59.786Z,8.50
2023-05-01T00:40:28.213Z,8.00
2023-05-01T00:42:56.834Z,7.90
2023-05-01T00:45:25.874Z,7.90
2023-05-01T00:47:54.318Z,8.00
2023-05-01T00:50:22.874Z,8.10
2023-05-01T00:52:51.314Z,7.90
2023-05-01T00:55:19.753Z,7.30
2023-05-01T00:57:48.344Z,7.20
2023-05-01T01:00:17.709Z,7.70
2023-05-01T01:02:47.135Z,7.50
2023-05-01T01:05:17.189Z,6.90
2023-05-01T01:08:11.934Z,6.80
2023-05-01T01:11:05.066Z,7.00
2023-05-01T01:13:40.323Z,5.80
2023-05-01T01:16:34.768Z,5.80
2023-05-01T01:19:28.639Z,6.20
2023-05-01T01:22:21.641Z,5.80
2023-05-01T01:24:59.593Z,5.30
2023-05-01T01:28:05.505Z,4.70
2023-05-01T01:30:52.289Z,4.80
2023-05-01T01:33:58.191Z,5.00
2023-05-01T01:36:56.638Z,4.70
2023-05-01T01:39:40.904Z,4.50
2023-05-01T01:42:14.015Z,4.60
2023-05-01T01:44:53.040Z,4.80
2023-05-01T01:47:28.470Z,5.00
2023-05-01T01:50:00.766Z,5.00
2023-05-01T01:52:30.499Z,4.40
2023-05-01T01:55:26.709Z,4.30
2023-05-01T01:57:56.395Z,4.50
2023-05-01T02:00:25.053Z,4.50
2023-05-01T02:02:55.459Z,5.00
2023-05-01T02:05:26.164Z,4.40
2023-05-01T02:07:57.124Z,4.80
2023-05-01T02:10:27.956Z,4.50
2023-05-01T02:12:59.488Z,5.10
2023-05-01T02:15:29.731Z,4.40
2023-05-01T02:18:02.118Z,4.20
2023-05-01T02:20:30.882Z,4.40
2023-05-01T02:23:00.038Z,4.00
2023-05-01T02:25:59.859Z,4.30
2023-05-01T02:28:30.103Z,4.40
2023-05-01T02:30:59.239Z,3.90
2023-05-01T02:33:28.598Z,3.90
2023-05-01T02:35:56.953Z,4.30
2023-05-01T02:38:25.703Z,4.10
2023-05-01T02:40:58.038Z,4.30
2023-05-01T02:43:29.084Z,4.10
2023-05-01T02:45:59.217Z,3.80
2023-05-01T02:48:29.270Z,4.00
2023-05-01T02:50:58.952Z,4.90
2023-05-01T02:53:27.515Z,4.60
2023-05-01T02:56:04.117Z,4.00
2023-05-01T02:58:33.702Z,4.30
2023-05-01T03:01:02.153Z,4.10
2023-05-01T03:03:30.626Z,4.40
2023-05-01T03:06:00.178Z,4.20
2023-05-01T03:08:28.656Z,4.70
2023-05-01T03:10:57.049Z,4.70
2023-05-01T03:13:25.748Z,5.20
2023-05-01T03:15:54.249Z,5.00
2023-05-01T03:18:22.808Z,5.00
2023-05-01T03:20:52.807Z,4.40
2023-05-01T03:23:21.488Z,4.50
2023-05-01T03:25:50.492Z,4.80
2023-05-01T03:29:18.769Z,5.00
2023-05-01T03:31:47.237Z,4.90
2023-05-01T03:34:15.755Z,4.30
2023-05-01T03:36:44.177Z,5.00
2023-05-01T03:39:13.034Z,5.20
2023-05-01T03:42:00.055Z,4.20
2023-05-01T03:44:31.398Z,4.30
2023-05-01T03:46:59.721Z,4.20
2023-05-01T03:49:29.990Z,4.60
2023-05-01T03:51:59.373Z,4.40
2023-05-01T03:54:28.139Z,4.90
2023-05-01T03:57:16.848Z,4.80
2023-05-01T03:59:45.440Z,4.40
2023-05-01T04:02:14.111Z,4.70
2023-05-01T04:04:43.556Z,4.20
2023-05-01T04:07:13.338Z,4.20
2023-05-01T04:09:41.846Z,4.50
2023-05-01T04:12:10.745Z,4.10
2023-05-01T04:14:39.151Z,4.20
2023-05-01T04:17:07.740Z,4.40
2023-05-01T04:19:38.112Z,4.30
2023-05-01T04:22:06.626Z,4.40
2023-05-01T04:24:36.620Z,4.10
2023-05-01T04:27:06.139Z,4.30
2023-05-01T04:30:20.931Z,4.20
2023-05-01T04:32:49.424Z,4.10
2023-05-01T04:35:17.955Z,4.50
2023-05-01T04:37:46.452Z,4.00
2023-05-01T04:40:15.412Z,4.40
2023-05-01T04:42:44.260Z,4.50
2023-05-01T04:45:14.762Z,4.20
2023-05-01T04:47:43.241Z,4.10
2023-05-01T04:50:12.077Z,4.40
2023-05-01T04:52:40.829Z,4.40
2023-05-01T04:55:10.572Z,4.50
2023-05-01T04:57:59.214Z,4.40
2023-05-01T05:00:28.243Z,4.80
2023-05-01T05:02:57.445Z,4.50
2023-05-01T05:05:27.182Z,4.40
2023-05-01T05:07:55.535Z,4.10
2023-05-01T05:10:47.349Z,3.70
2023-05-01T05:13:39.888Z,4.10
2023-05-01T05:16:12.817Z,4.40
2023-05-01T05:18:41.310Z,3.90
2023-05-01T05:21:10.698Z,4.30
2023-05-01T05:23:41.025Z,4.40
2023-05-01T05:26:09.403Z,4.30
2023-05-01T05:28:37.776Z,4.10
2023-05-01T05:31:14.730Z,4.80
2023-05-01T05:33:43.225Z,4.60
2023-05-01T05:36:12.246Z,4.40
2023-05-01T05:38:42.673Z,4.90
2023-05-01T05:41:13.268Z,4.10
2023-05-01T05:43:42.123Z,3.90
2023-05-01T05:46:10.650Z,3.60
2023-05-01T05:48:39.551Z,3.70
2023-05-01T05:51:07.955Z,3.80
2023-05-01T05:53:36.428Z,5.20
2023-05-01T05:56:05.120Z,4.20
2023-05-01T05:58:33.706Z,4.70
2023-05-01T06:01:02.200Z,4.30
2023-05-01T06:03:30.853Z,4.90
2023-05-01T06:06:02.423Z,3.50
2023-05-01T06:08:30.986Z,3.30
2023-05-01T06:10:59.492Z,3.50
2023-05-01T06:13:29.282Z,3.30
2023-05-01T06:15:57.691Z,4.00
2023-05-01T06:18:26.381Z,5.00
2023-05-01T06:20:54.759Z,4.20
2023-05-01T06:23:23.188Z,4.50
2023-05-01T06:26:16.759Z,4.80
2023-05-01T06:28:45.230Z,4.60
2023-05-01T06:31:29.090Z,4.00
2023-05-01T06:33:57.595Z,3.80
2023-05-01T06:36:49.161Z,3.40
2023-05-01T06:39:18.056Z,3.50
2023-05-01T06:41:47.785Z,4.50
2023-05-01T06:44:16.649Z,3.00
2023-05-01T06:46:45.118Z,3.70
2023-05-01T06:49:14.524Z,3.60
2023-05-01T06:51:42.930Z,4.00
2023-05-01T06:54:14.081Z,4.20
2023-05-01T06:56:43.348Z,4.00
2023-05-01T06:59:11.786Z,3.50
2023-05-01T07:01:40.385Z,3.90
2023-05-01T07:04:08.872Z,4.30
2023-05-01T07:06:37.724Z,6.30
2023-05-01T07:09:06.347Z,5.40
2023-05-01T07:11:34.897Z,3.80
2023-05-01T07:14:03.268Z,3.60
2023-05-01T07:16:32.532Z,3.70
2023-05-01T07:19:00.896Z,3.20
2023-05-01T07:21:29.308Z,3.50
2023-05-01T07:23:57.840Z,3.40
2023-05-01T07:26:29.390Z,3.20
2023-05-01T07:28:57.815Z,3.30
2023-05-01T07:31:26.186Z,3.30
2023-05-01T07:33:54.560Z,3.60
2023-05-01T07:36:23.053Z,3.20
2023-05-01T07:38:51.384Z,3.60
2023-05-01T07:41:19.748Z,3.40
2023-05-01T07:43:48.078Z,3.50
2023-05-01T07:46:17.243Z,2.90
2023-05-01T07:48:46.120Z,3.40
2023-05-01T07:51:14.870Z,3.50
2023-05-01T07:53:43.337Z,3.40
2023-05-01T07:56:11.772Z,3.70
2023-05-01T07:58:41.846Z,3.70
2023-05-01T08:01:14.073Z,3.30
2023-05-01T08:03:42.689Z,3.50
2023-05-01T08:06:11.273Z,3.30
2023-05-01T08:08:41.660Z,3.20
2023-05-01T08:11:10.223Z,3.30
2023-05-01T08:13:38.654Z,3.80
2023-05-01T08:16:07.368Z,3.10
2023-05-01T08:18:35.832Z,3.70
2023-05-01T08:21:04.277Z,3.30
2023-05-01T08:23:33.104Z,2.70
2023-05-01T08:26:01.634Z,2.70
2023-05-01T08:28:30.109Z,2.50
2023-05-01T08:30:58.554Z,3.10
2023-05-01T08:33:26.968Z,3.10
2023-05-01T08:35:55.437Z,3.20
2023-05-01T08:38:24.250Z,3.00
2023-05-01T08:40:54.437Z,3.40
2023-05-01T08:43:24.462Z,2.90
2023-05-01T08:45:56.593Z,3.20
2023-05-01T08:48:27.256Z,3.00
2023-05-01T08:50:59.964Z,3.20
2023-05-01T08:53:35.093Z,3.20
2023-05-01T08:56:07.898Z,3.20
2023-05-01T08:58:37.315Z,3.30
2023-05-01T09:01:06.737Z,4.80
2023-05-01T09:03:36.685Z,3.70
2023-05-01T09:06:05.994Z,2.70
2023-05-01T09:08:34.410Z,3.00
2023-05-01T09:11:03.831Z,3.20
2023-05-01T09:13:32.619Z,3.10
2023-05-01T09:16:01.386Z,2.90
2023-05-01T09:18:31.381Z,2.80
2023-05-01T09:20:59.901Z,2.70
2023-05-01T09:23:28.491Z,2.70
2023-05-01T09:25:58.476Z,3.00
2023-05-01T09:28:46.285Z,2.50
2023-05-01T09:31:33.027Z,3.10
2023-05-01T09:34:03.442Z,3.20
2023-05-01T09:36:33.853Z,2.60
2023-05-01T09:39:02.631Z,3.10
2023-05-01T09:41:34.112Z,3.10
2023-05-01T09:44:03.071Z,3.00
2023-05-01T09:46:52.346Z,3.50
2023-05-01T09:49:20.798Z,3.60
2023-05-01T09:51:49.916Z,4.20
2023-05-01T09:54:20.389Z,3.20
2023-05-01T09:56:49.888Z,3.20
2023-05-01T09:59:22.911Z,3.30
2023-05-01T10:01:51.601Z,3.30
2023-05-01T10:04:40.672Z,3.60
2023-05-01T10:07:14.065Z,3.20
2023-05-01T10:09:42.623Z,3.40
2023-05-01T10:12:11.181Z,3.40
2023-05-01T10:14:57.210Z,3.40
2023-05-01T10:17:27.926Z,3.80
2023-05-01T10:19:56.512Z,3.50
2023-05-01T10:22:26.591Z,3.70
2023-05-01T10:24:55.303Z,3.60
2023-05-01T10:27:25.965Z,3.40
2023-05-01T10:29:54.930Z,3.60
2023-05-01T10:32:23.913Z,3.50
2023-05-01T10:34:58.276Z,3.40
2023-05-01T10:38:01.044Z,3.20
2023-05-01T10:40:41.565Z,3.70
2023-05-01T10:43:13.685Z,4.10
2023-05-01T10:45:46.438Z,4.50
2023-05-01T10:48:39.746Z,4.40
2023-05-01T10:51:20.718Z,5.20
2023-05-01T10:54:10.062Z,5.40
2023-05-01T10:56:38.438Z,4.90
2023-05-01T10:59:07.529Z,4.40
2023-05-01T11:01:40.426Z,3.60
2023-05-01T11:04:30.248Z,4.70
2023-05-01T11:07:11.564Z,4.40
2023-05-01T11:09:45.187Z,6.00
2023-05-01T11:12:15.843Z,4.50
2023-05-01T11:15:03.293Z,4.10
2023-05-01T11:17:41.061Z,3.80
2023-05-01T11:20:11.244Z,3.60
2023-05-01T11:22:47.029Z,3.50
2023-05-01T11:25:27.914Z,4.30
2023-05-01T11:27:58.947Z,4.10
2023-05-01T11:30:47.890Z,3.80
2023-05-01T11:33:22.549Z,3.80
2023-05-01T11:35:57.378Z,4.10
2023-05-01T11:38:25.818Z,3.90
2023-05-01T11:40:55.841Z,4.40
2023-05-01T11:43:24.512Z,3.70
2023-05-01T11:45:55.340Z,3.90
2023-05-01T11:48:23.964Z,3.60
2023-05-01T11:50:52.452Z,3.60
2023-05-01T11:53:21.182Z,3.90
2023-05-01T11:55:49.844Z,3.80
2023-05-01T11:58:18.358Z,4.10
2023-05-01T12:00:50.916Z,3.80
2023-05-01T12:03:19.360Z,4.40
2023-05-01T12:05:49.354Z,3.80
2023-05-01T12:08:20.851Z,3.70
2023-05-01T12:10:57.560Z,3.20
2023-05-01T12:13:29.685Z,3.20
2023-05-01T12:15:58.470Z,3.50
2023-05-01T12:18:27.185Z,3.50
2023-05-01T12:20:55.653Z,3.60
2023-05-01T12:23:32.653Z,3.20
2023-05-01T12:26:03.170Z,3.20
2023-05-01T12:28:31.762Z,4.30
2023-05-01T12:31:05.439Z,3.90
2023-05-01T12:33:34.088Z,4.10
2023-05-01T12:36:12.085Z,3.70
2023-05-01T12:38:40.498Z,4.30
2023-05-01T12:41:10.716Z,8.20
2023-05-01T12:43:39.408Z,5.50
2023-05-01T12:46:14.805Z,4.70
2023-05-01T12:48:44.175Z,3.70
2023-05-01T12:51:22.075Z,4.50
2023-05-01T12:53:52.440Z,3.40
2023-05-01T12:56:23.860Z,4.40
2023-05-01T12:58:53.925Z,4.10
2023-05-01T13:01:29.300Z,3.80
2023-05-01T13:03:58.225Z,4.10
2023-05-01T13:06:36.146Z,4.50
2023-05-01T13:09:12.044Z,4.40
2023-05-01T13:11:40.421Z,4.00
2023-05-01T13:14:10.000Z,3.60
2023-05-01T13:16:46.751Z,4.60
2023-05-01T13:19:41.543Z,4.00
2023-05-01T13:22:09.983Z,3.80
2023-05-01T13:24:39.541Z,4.20
2023-05-01T13:27:14.362Z,4.00
2023-05-01T13:29:42.905Z,4.00
2023-05-01T13:32:12.188Z,5.30
2023-05-01T13:34:42.843Z,4.80
2023-05-01T13:37:14.699Z,4.40
2023-05-01T13:39:44.597Z,4.50
2023-05-01T13:42:16.277Z,4.00
2023-05-01T13:44:51.313Z,4.30
2023-05-01T13:47:20.066Z,3.70
2023-05-01T13:49:48.937Z,3.90
2023-05-01T13:52:19.241Z,4.00
2023-05-01T13:54:48.619Z,4.50
2023-05-01T13:57:17.505Z,3.50
2023-05-01T13:59:47.186Z,3.70
2023-05-01T14:02:25.408Z,4.30
2023-05-01T14:04:54.847Z,3.80
2023-05-01T14:07:24.976Z,3.80
2023-05-01T14:09:56.242Z,3.70
2023-05-01T14:12:30.433Z,3.90
2023-05-01T14:15:03.588Z,8.20
2023-05-01T14:17:35.381Z,3.70
2023-05-01T14:20:08.807Z,3.40
2023-05-01T14:22:45.847Z,4.00
2023-05-01T14:25:24.709Z,4.10
2023-05-01T14:27:54.310Z,4.10
2023-05-01T14:30:27.915Z,3.70
2023-05-01T14:32:56.910Z,3.90
2023-05-01T14:35:25.672Z,3.70
2023-05-01T14:37:55.284Z,3.60
2023-05-01T14:40:27.978Z,4.00
2023-05-01T14:42:58.009Z,4.20
2023-05-01T14:45:26.729Z,4.30
2023-05-01T14:47:55.132Z,3.50
2023-05-01T14:50:24.683Z,3.20
2023-05-01T14:52:54.648Z,4.00
2023-05-01T14:55:28.817Z,3.80
2023-05-01T14:57:58.107Z,4.00
2023-05-01T15:00:27.891Z,4.10
2023-05-01T15:02:58.728Z,3.80
2023-05-01T15:05:28.502Z,4.00
2023-05-01T15:07:57.276Z,4.30
2023-05-01T15:10:25.660Z,4.10
2023-05-01T15:12:54.064Z,4.10
2023-05-01T15:15:22.522Z,3.90
2023-05-01T15:17:50.900Z,4.30
2023-05-01T15:20:19.440Z,4.00
2023-05-01T15:22:47.821Z,4.00
2023-05-01T15:25:16.697Z,4.00
2023-05-01T15:27:46.100Z,3.80
2023-05-01T15:30:15.372Z,4.50
2023-05-01T15:32:44.112Z,4.10
2023-05-01T15:35:13.136Z,3.80
2023-05-01T15:37:42.358Z,4.10
2023-05-01T15:40:10.835Z,4.40
2023-05-01T15:42:40.087Z,4.30
2023-05-01T15:45:09.009Z,4.10
2023-05-01T15:47:37.508Z,3.90
2023-05-01T15:50:09.600Z,4.40
2023-05-01T15:52:38.666Z,4.00
2023-05-01T15:55:07.464Z,4.20
2023-05-01T15:57:35.971Z,4.50
2023-05-01T16:00:04.880Z,4.00
2023-05-01T16:02:34.205Z,3.90
2023-05-01T16:05:02.666Z,4.40
2023-05-01T16:07:31.069Z,4.40
2023-05-01T16:09:59.816Z,3.80
2023-05-01T16:12:29.107Z,4.30
2023-05-01T16:14:57.738Z,3.80
2023-05-01T16:17:26.179Z,4.20
2023-05-01T16:19:55.342Z,4.20
2023-05-01T16:22:23.773Z,3.80
2023-05-01T16:24:52.172Z,3.70
2023-05-01T16:27:20.692Z,4.10
2023-05-01T16:29:49.073Z,4.50
2023-05-01T16:32:17.472Z,4.60
2023-05-01T16:34:45.845Z,5.00
2023-05-01T16:37:15.992Z,4.90
2023-05-01T16:39:44.623Z,4.30
2023-05-01T16:42:13.487Z,4.40
2023-05-01T16:44:41.946Z,4.40
2023-05-01T16:47:12.423Z,4.60
2023-05-01T16:49:46.748Z,4.40
2023-05-01T16:52:17.755Z,4.00
2023-05-01T16:54:46.123Z,4.20
2023-05-01T16:57:15.520Z,4.10
2023-05-01T16:59:43.872Z,4.30
2023-05-01T17:02:12.310Z,4.00
2023-05-01T17:04:40.700Z,3.80
2023-05-01T17:07:09.099Z,4.30
2023-05-01T17:09:37.460Z,4.50
2023-05-01T17:12:06.393Z,4.60
2023-05-01T17:14:34.775Z,4.50
2023-05-01T17:17:04.551Z,4.80
2023-05-01T17:19:39.007Z,5.60
2023-05-01T17:22:07.922Z,6.70
2023-05-01T17:24:36.829Z,11.00
2023-05-01T17:27:05.243Z,9.40
2023-05-01T17:29:35.570Z,7.80
2023-05-01T17:32:06.748Z,8.60
2023-05-01T17:34:35.401Z,8.60
2023-05-01T17:37:03.933Z,8.10
2023-05-01T17:39:32.412Z,8.30
2023-05-01T17:42:02.567Z,7.70
2023-05-01T17:44:31.300Z,7.30
2023-05-01T17:46:59.791Z,6.50
2023-05-01T17:49:28.204Z,7.40
2023-05-01T17:51:56.871Z,7.30
2023-05-01T17:54:25.244Z,7.40
2023-05-01T17:56:53.630Z,7.10
2023-05-01T17:59:22.000Z,7.90
2023-05-01T18:01:50.470Z,8.10
2023-05-01T18:04:19.001Z,9.20
2023-05-01T18:06:47.636Z,9.40
2023-05-01T18:09:16.304Z,9.70
2023-05-01T18:11:44.988Z,10.00
2023-05-01T18:14:13.574Z,9.70
2023-05-01T18:16:42.370Z,8.60
2023-05-01T18:19:10.836Z,8.80
2023-05-01T18:21:39.966Z,8.00
2023-05-01T18:24:08.843Z,7.30
2023-05-01T18:26:37.424Z,7.10
2023-05-01T18:29:05.917Z,7.20
2023-05-01T18:31:36.019Z,6.50
2023-05-01T18:34:04.828Z,6.30
2023-05-01T18:36:33.370Z,7.00
2023-05-01T18:39:02.105Z,6.10
2023-05-01T18:41:30.557Z,6.20
2023-05-01T18:44:01.499Z,6.00
2023-05-01T18:46:30.299Z,6.60
2023-05-01T18:48:59.944Z,6.70
2023-05-01T18:51:28.329Z,7.10
2023-05-01T18:53:56.685Z,6.70
2023-05-01T18:56:25.870Z,6.60
2023-05-01T18:58:55.287Z,6.90
2023-05-01T19:01:23.765Z,7.50
2023-05-01T19:03:52.219Z,7.00
2023-05-01T19:06:20.746Z,7.90
2023-05-01T19:08:49.185Z,6.90
2023-05-01T19:11:17.614Z,6.50
2023-05-01T19:13:46.063Z,7.10
2023-05-01T19:16:14.748Z,6.70
2023-05-01T19:18:43.159Z,7.40
2023-05-01T19:21:11.703Z,8.20
2023-05-01T19:23:41.502Z,9.00
2023-05-01T19:26:09.920Z,9.30
2023-05-01T19:28:38.894Z,8.40
2023-05-01T19:31:07.959Z,8.60
2023-05-01T19:33:40.159Z,8.50
2023-05-01T19:36:08.547Z,7.70
2023-05-01T19:38:39.718Z,7.50
2023-05-01T19:45:03.731Z,6.40
2023-05-01T19:47:32.124Z,5.70
2023-05-01T19:50:03.526Z,5.20
2023-05-01T19:52:31.936Z,4.50
2023-05-01T19:55:03.257Z,4.70
2023-05-01T19:57:31.835Z,4.70
2023-05-01T20:00:00.492Z,4.80
2023-05-01T20:02:29.683Z,5.20
2023-05-01T20:04:58.472Z,5.10
2023-05-01T20:07:28.622Z,5.80
2023-05-01T20:09:57.454Z,5.40
2023-05-01T20:12:26.934Z,5.70
2023-05-01T20:15:00.562Z,6.10
2023-05-01T20:17:29.434Z,6.10
2023-05-01T20:19:58.258Z,6.50
2023-05-01T20:22:26.816Z,5.50
2023-05-01T20:24:55.178Z,5.40
2023-05-01T20:27:23.697Z,5.10
2023-05-01T20:29:52.117Z,5.00
2023-05-01T20:32:20.518Z,4.70
2023-05-01T20:34:48.891Z,4.80
2023-05-01T20:37:17.291Z,4.60
2023-05-01T20:39:45.667Z,4.90
2023-05-01T20:42:13.962Z,4.50
2023-05-01T20:44:42.483Z,4.50
2023-05-01T20:47:15.175Z,4.50
2023-05-01T20:49:43.903Z,4.40
2023-05-01T20:52:12.381Z,4.80
2023-05-01T20:54:40.817Z,4.40
2023-05-01T20:57:09.210Z,4.40
2023-05-01T20:59:37.596Z,4.20
2023-05-01T21:02:06.227Z,4.50
2023-05-01T21:04:34.719Z,3.90
2023-05-01T21:07:03.068Z,4.20
2023-05-01T21:09:31.550Z,4.00
2023-05-01T21:12:00.136Z,3.50
2023-05-01T21:14:28.581Z,3.90
2023-05-01T21:16:57.058Z,3.60
2023-05-01T21:19:25.457Z,3.90
2023-05-01T21:21:55.216Z,3.30
2023-05-01T21:24:25.640Z,3.30
2023-05-01T21:26:54.807Z,3.60
2023-05-01T21:29:23.252Z,3.50
2023-05-01T21:31:51.679Z,3.60
2023-05-01T21:34:20.085Z,3.30
2023-05-01T21:36:49.399Z,3.30
2023-05-01T21:39:18.017Z,4.00
2023-05-01T21:41:48.936Z,3.80
2023-05-01T21:44:17.770Z,4.50
2023-05-01T21:46:46.184Z,5.40
2023-05-01T21:49:18.748Z,6.00
2023-05-01T21:51:47.202Z,6.00
2023-05-01T21:54:18.362Z,6.60
2023-05-01T21:56:48.387Z,7.10
2023-05-01T21:59:18.029Z,7.10
2023-05-01T22:01:46.467Z,7.00
2023-05-01T22:04:18.911Z,7.30
2023-05-01T22:06:47.426Z,7.00
2023-05-01T22:09:15.972Z,7.10
2023-05-01T22:11:44.436Z,7.60
2023-05-01T22:14:12.892Z,7.50
2023-05-01T22:16:41.613Z,7.30
2023-05-01T22:19:10.004Z,7.90
2023-05-01T22:21:39.072Z,7.00
2023-05-01T22:24:07.586Z,7.50
2023-05-01T22:26:36.012Z,8.70
2023-05-01T22:29:04.376Z,8.60
2023-05-01T22:31:32.820Z,8.60
2023-05-01T22:34:01.447Z,8.90
2023-05-01T22:36:31.446Z,9.30
2023-05-01T22:38:59.837Z,9.40
2023-05-01T22:41:28.145Z,10.40
2023-05-01T22:43:57.100Z,11.20
2023-05-01T22:46:25.909Z,11.70
2023-05-01T22:48:54.331Z,11.50
2023-05-01T22:51:22.690Z,12.70
2023-05-01T22:53:50.984Z,11.90
2023-05-01T22:56:19.810Z,12.10
2023-05-01T22:58:48.295Z,12.60
2023-05-01T23:01:16.686Z,11.80
2023-05-01T23:03:45.181Z,12.00
2023-05-01T23:06:13.669Z,11.90
2023-05-01T23:09:03.440Z,11.80
2023-05-01T23:11:33.556Z,11.90
2023-05-01T23:14:02.337Z,12.00
2023-05-01T23:16:36.776Z,11.80
2023-05-01T23:19:05.305Z,12.40
2023-05-01T23:21:33.624Z,12.30
2023-05-01T23:24:02.086Z,12.80
2023-05-01T23:26:30.679Z,12.00
2023-05-01T23:29:00.285Z,11.70
2023-05-01T23:31:29.375Z,12.10
2023-05-01T23:33:58.160Z,11.80
2023-05-01T23:36:28.988Z,11.00
2023-05-01T23:38:57.415Z,10.80
2023-05-01T23:41:26.278Z,10.90
2023-05-01T23:43:54.598Z,10.30
2023-05-01T23:46:23.041Z,10.70
2023-05-01T23:48:51.459Z,10.20
2023-05-01T23:51:19.877Z,10.30
2023-05-01T23:53:48.287Z,9.80
2023-05-01T23:56:16.627Z,9.70
2023-05-01T23:58:45.110Z,9.40
